sensor_id;sensor_type;location;lat;lon;timestamp;pressure;altitude;pressure_sealevel;temperature;humidity
50384;BME280;36301;48.310;12.786;2023-09-08T00:01:11;96542.34;;;17.09;81.38
50384;BME280;36301;48.310;12.786;2023-09-08T00:03:37;96547.00;;;16.98;82.29
50384;BME280;36301;48.310;12.786;2023-09-08T00:06:04;96547.84;;;16.88;83.87
50384;BME280;36301;48.310;12.786;2023-09-08T00:08:31;96553.56;;;16.86;84.43
50384;BME280;36301;48.310;12.786;2023-09-08T00:10:57;96545.53;;;16.90;83.63
50384;BME280;36301;48.310;12.786;2023-09-08T00:13:24;96547.81;;;16.92;83.46
50384;BME280;36301;48.310;12.786;2023-09-08T00:15:51;96537.19;;;16.77;84.07
50384;BME280;36301;48.310;12.786;2023-09-08T00:18:17;96541.06;;;16.73;85.18
50384;BME280;36301;48.310;12.786;2023-09-08T00:20:44;96546.41;;;16.62;85.83
50384;BME280;36301;48.310;12.786;2023-09-08T00:23:10;96543.38;;;16.60;86.75
50384;BME280;36301;48.310;12.786;2023-09-08T00:25:37;96528.56;;;16.45;86.88
50384;BME280;36301;48.310;12.786;2023-09-08T00:28:04;96534.66;;;16.49;87.64
50384;BME280;36301;48.310;12.786;2023-09-08T00:30:31;96532.06;;;16.34;89.19
50384;BME280;36301;48.310;12.786;2023-09-08T00:32:57;96527.88;;;16.33;88.15
50384;BME280;36301;48.310;12.786;2023-09-08T00:35:24;96536.66;;;16.27;89.41
50384;BME280;36301;48.310;12.786;2023-09-08T00:38:16;96531.72;;;16.22;90.52
50384;BME280;36301;48.310;12.786;2023-09-08T00:40:43;96529.06;;;16.18;90.02
50384;BME280;36301;48.310;12.786;2023-09-08T00:43:10;96527.13;;;16.26;88.57
50384;BME280;36301;48.310;12.786;2023-09-08T00:45:40;96537.81;;;16.33;89.09
50384;BME280;36301;48.310;12.786;2023-09-08T00:48:09;96521.41;;;16.24;89.89
50384;BME280;36301;48.310;12.786;2023-09-08T00:50:36;96535.19;;;16.22;90.29
50384;BME280;36301;48.310;12.786;2023-09-08T00:53:04;96527.94;;;16.16;89.54
50384;BME280;36301;48.310;12.786;2023-09-08T00:55:31;96522.22;;;16.06;91.16
50384;BME280;36301;48.310;12.786;2023-09-08T00:57:59;96535.97;;;16.08;91.52
50384;BME280;36301;48.310;12.786;2023-09-08T01:00:26;96539.00;;;16.11;91.38
50384;BME280;36301;48.310;12.786;2023-09-08T01:02:53;96535.59;;;16.14;90.50
50384;BME280;36301;48.310;12.786;2023-09-08T01:05:20;96534.06;;;16.05;91.30
50384;BME280;36301;48.310;12.786;2023-09-08T01:07:47;96534.44;;;16.15;89.77
50384;BME280;36301;48.310;12.786;2023-09-08T01:10:14;96535.97;;;16.08;90.82
50384;BME280;36301;48.310;12.786;2023-09-08T01:12:41;96539.78;;;16.11;90.36
50384;BME280;36301;48.310;12.786;2023-09-08T01:15:08;96529.88;;;16.01;92.08
50384;BME280;36301;48.310;12.786;2023-09-08T01:17:35;96541.72;;;16.03;90.95
50384;BME280;36301;48.310;12.786;2023-09-08T01:20:06;96532.09;;;16.24;89.31
50384;BME280;36301;48.310;12.786;2023-09-08T01:23:03;96538.19;;;16.28;88.94
50384;BME280;36301;48.310;12.786;2023-09-08T01:25:35;96532.50;;;16.22;89.19
50384;BME280;36301;48.310;12.786;2023-09-08T01:28:05;96537.44;;;16.24;89.09
50384;BME280;36301;48.310;12.786;2023-09-08T01:30:33;96530.97;;;16.21;89.06
50384;BME280;36301;48.310;12.786;2023-09-08T01:33:01;96526.03;;;16.16;89.34
50384;BME280;36301;48.310;12.786;2023-09-08T01:35:28;96533.25;;;16.23;88.91
50384;BME280;36301;48.310;12.786;2023-09-08T01:37:55;96526.81;;;16.13;90.24
50384;BME280;36301;48.310;12.786;2023-09-08T01:40:22;96529.53;;;15.95;91.85
50384;BME280;36301;48.310;12.786;2023-09-08T01:42:49;96522.31;;;15.89;91.75
50384;BME280;36301;48.310;12.786;2023-09-08T01:45:16;96523.81;;;15.90;91.95
50384;BME280;36301;48.310;12.786;2023-09-08T01:47:42;96528.00;;;15.94;91.50
50384;BME280;36301;48.310;12.786;2023-09-08T01:50:09;96526.84;;;15.95;91.59
50384;BME280;36301;48.310;12.786;2023-09-08T01:52:36;96535.28;;;15.83;92.66
50384;BME280;36301;48.310;12.786;2023-09-08T01:55:02;96524.22;;;15.92;91.45
50384;BME280;36301;48.310;12.786;2023-09-08T01:57:29;96528.41;;;15.89;91.75
50384;BME280;36301;48.310;12.786;2023-09-08T01:59:56;96525.78;;;15.82;92.37
50384;BME280;36301;48.310;12.786;2023-09-08T02:02:22;96530.72;;;15.80;92.17
50384;BME280;36301;48.310;12.786;2023-09-08T02:04:49;96520.81;;;15.73;92.11
50384;BME280;36301;48.310;12.786;2023-09-08T02:07:16;96526.53;;;15.75;92.74
50384;BME280;36301;48.310;12.786;2023-09-08T02:09:42;96517.03;;;15.67;92.69
50384;BME280;36301;48.310;12.786;2023-09-08T02:12:09;96530.38;;;15.67;93.11
50384;BME280;36301;48.310;12.786;2023-09-08T02:14:35;96523.50;;;15.63;93.44
50384;BME280;36301;48.310;12.786;2023-09-08T02:17:02;96526.16;;;15.59;93.56
50384;BME280;36301;48.310;12.786;2023-09-08T02:19:29;96527.69;;;15.56;93.70
50384;BME280;36301;48.310;12.786;2023-09-08T02:21:55;96521.59;;;15.45;94.37
50384;BME280;36301;48.310;12.786;2023-09-08T02:24:22;96526.94;;;15.38;95.37
50384;BME280;36301;48.310;12.786;2023-09-08T02:26:49;96524.28;;;15.27;95.46
50384;BME280;36301;48.310;12.786;2023-09-08T02:29:15;96528.09;;;15.37;95.38
50384;BME280;36301;48.310;12.786;2023-09-08T02:31:42;96532.28;;;15.35;95.07
50384;BME280;36301;48.310;12.786;2023-09-08T02:34:09;96527.69;;;15.39;95.25
50384;BME280;36301;48.310;12.786;2023-09-08T02:36:38;96523.50;;;15.34;95.33
50384;BME280;36301;48.310;12.786;2023-09-08T02:39:04;96515.91;;;15.36;95.05
50384;BME280;36301;48.310;12.786;2023-09-08T02:41:31;96515.91;;;15.32;94.66
50384;BME280;36301;48.310;12.786;2023-09-08T02:43:57;96520.47;;;15.28;94.92
50384;BME280;36301;48.310;12.786;2023-09-08T02:46:24;96520.09;;;15.16;95.40
50384;BME280;36301;48.310;12.786;2023-09-08T02:48:51;96524.66;;;15.04;96.36
50384;BME280;36301;48.310;12.786;2023-09-08T02:51:17;96519.34;;;14.97;97.15
50384;BME280;36301;48.310;12.786;2023-09-08T02:53:44;96521.63;;;14.95;97.20
50384;BME280;36301;48.310;12.786;2023-09-08T02:56:11;96523.13;;;14.89;97.31
50384;BME280;36301;48.310;12.786;2023-09-08T02:58:37;96514.34;;;14.78;97.43
50384;BME280;36301;48.310;12.786;2023-09-08T03:01:14;96521.22;;;14.86;98.03
50384;BME280;36301;48.310;12.786;2023-09-08T03:03:42;96520.84;;;14.88;98.36
50384;BME280;36301;48.310;12.786;2023-09-08T03:06:10;96522.75;;;14.80;98.43
50384;BME280;36301;48.310;12.786;2023-09-08T03:08:37;96511.69;;;14.78;98.46
50384;BME280;36301;48.310;12.786;2023-09-08T03:11:04;96515.88;;;14.72;99.35
50384;BME280;36301;48.310;12.786;2023-09-08T03:13:32;96524.25;;;14.67;99.00
50384;BME280;36301;48.310;12.786;2023-09-08T03:16:04;96531.44;;;14.59;99.91
50384;BME280;36301;48.310;12.786;2023-09-08T03:18:32;96528.75;;;14.48;100.00
50384;BME280;36301;48.310;12.786;2023-09-08T03:20:59;96522.63;;;14.44;100.00
50384;BME280;36301;48.310;12.786;2023-09-08T03:23:42;96512.31;;;14.25;100.00
50384;BME280;36301;48.310;12.786;2023-09-08T03:26:09;96526.00;;;14.27;100.00
50384;BME280;36301;48.310;12.786;2023-09-08T03:28:37;96524.84;;;14.21;100.00
50384;BME280;36301;48.310;12.786;2023-09-08T03:31:05;96524.47;;;14.22;100.00
50384;BME280;36301;48.310;12.786;2023-09-08T03:33:32;96530.91;;;14.18;100.00
50384;BME280;36301;48.310;12.786;2023-09-08T03:35:59;96522.13;;;14.14;100.00
50384;BME280;36301;48.310;12.786;2023-09-08T03:38:25;96524.81;;;14.10;100.00
50384;BME280;36301;48.310;12.786;2023-09-08T03:40:52;96530.47;;;14.09;100.00
50384;BME280;36301;48.310;12.786;2023-09-08T03:43:19;96525.53;;;14.07;100.00
50384;BME280;36301;48.310;12.786;2023-09-08T03:45:46;96534.69;;;14.10;100.00
50384;BME280;36301;48.310;12.786;2023-09-08T03:48:13;96526.69;;;14.06;100.00
50384;BME280;36301;48.310;12.786;2023-09-08T03:50:40;96532.38;;;14.01;100.00
50384;BME280;36301;48.310;12.786;2023-09-08T03:53:07;96531.97;;;13.95;100.00
50384;BME280;36301;48.310;12.786;2023-09-08T03:55:34;96541.78;;;13.88;100.00
50384;BME280;36301;48.310;12.786;2023-09-08T03:58:00;96533.38;;;13.79;100.00
50384;BME280;36301;48.310;12.786;2023-09-08T04:00:27;96532.25;;;13.80;100.00
50384;BME280;36301;48.310;12.786;2023-09-08T04:02:53;96522.31;;;13.69;100.00
50384;BME280;36301;48.310;12.786;2023-09-08T04:05:20;96544.81;;;13.79;100.00
50384;BME280;36301;48.310;12.786;2023-09-08T04:07:47;96535.63;;;13.73;100.00
50384;BME280;36301;48.310;12.786;2023-09-08T04:10:13;96539.41;;;13.68;100.00
50384;BME280;36301;48.310;12.786;2023-09-08T04:12:40;96531.69;;;13.53;100.00
50384;BME280;36301;48.310;12.786;2023-09-08T04:15:08;96540.84;;;13.55;100.00
50384;BME280;36301;48.310;12.786;2023-09-08T04:17:36;96539.69;;;13.49;100.00
50384;BME280;36301;48.310;12.786;2023-09-08T04:20:06;96542.28;;;13.42;100.00
50384;BME280;36301;48.310;12.786;2023-09-08T04:22:34;96538.75;;;13.27;100.00
50384;BME280;36301;48.310;12.786;2023-09-08T04:25:01;96552.03;;;13.27;100.00
50384;BME280;36301;48.310;12.786;2023-09-08T04:27:28;96543.44;;;13.00;100.00
50384;BME280;36301;48.310;12.786;2023-09-08T04:29:54;96543.78;;;12.95;100.00
50384;BME280;36301;48.310;12.786;2023-09-08T04:32:21;96538.69;;;12.79;100.00
50384;BME280;36301;48.310;12.786;2023-09-08T04:34:48;96539.88;;;12.85;100.00
50384;BME280;36301;48.310;12.786;2023-09-08T04:37:16;96539.19;;;12.92;100.00
50384;BME280;36301;48.310;12.786;2023-09-08T04:39:42;96546.81;;;12.97;100.00
50384;BME280;36301;48.310;12.786;2023-09-08T04:42:10;96544.97;;;13.01;100.00
50384;BME280;36301;48.310;12.786;2023-09-08T04:44:37;96532.84;;;13.04;100.00
50384;BME280;36301;48.310;12.786;2023-09-08T04:47:04;96551.13;;;13.09;100.00
50384;BME280;36301;48.310;12.786;2023-09-08T04:49:31;96542.03;;;13.13;100.00
50384;BME280;36301;48.310;12.786;2023-09-08T04:51:57;96523.00;;;13.08;100.00
50384;BME280;36301;48.310;12.786;2023-09-08T04:54:24;96555.78;;;13.22;100.00
50384;BME280;36301;48.310;12.786;2023-09-08T04:56:54;96552.78;;;13.28;100.00
50384;BME280;36301;48.310;12.786;2023-09-08T04:59:37;96553.97;;;13.30;100.00
50384;BME280;36301;48.310;12.786;2023-09-08T05:02:05;96546.28;;;13.21;100.00
50384;BME280;36301;48.310;12.786;2023-09-08T05:04:32;96553.94;;;13.27;100.00
50384;BME280;36301;48.310;12.786;2023-09-08T05:06:58;96549.81;;;13.36;100.00
50384;BME280;36301;48.310;12.786;2023-09-08T05:09:25;96551.81;;;13.46;100.00
50384;BME280;36301;48.310;12.786;2023-09-08T05:11:51;96546.09;;;13.44;100.00
50384;BME280;36301;48.310;12.786;2023-09-08T05:14:18;96549.91;;;13.47;100.00
50384;BME280;36301;48.310;12.786;2023-09-08T05:16:45;96552.16;;;13.41;100.00
50384;BME280;36301;48.310;12.786;2023-09-08T05:19:12;96554.88;;;13.52;100.00
50384;BME280;36301;48.310;12.786;2023-09-08T05:21:39;96550.69;;;13.51;100.00
50384;BME280;36301;48.310;12.786;2023-09-08T05:24:07;96556.84;;;13.62;100.00
50384;BME280;36301;48.310;12.786;2023-09-08T05:26:35;96565.59;;;13.63;100.00
50384;BME280;36301;48.310;12.786;2023-09-08T05:29:02;96556.09;;;13.62;100.00
50384;BME280;36301;48.310;12.786;2023-09-08T05:31:29;96566.78;;;13.69;100.00
50384;BME280;36301;48.310;12.786;2023-09-08T05:33:55;96568.75;;;13.79;100.00
50384;BME280;36301;48.310;12.786;2023-09-08T05:36:22;96563.09;;;13.84;100.00
50384;BME280;36301;48.310;12.786;2023-09-08T05:38:48;96571.09;;;13.91;100.00
50384;BME280;36301;48.310;12.786;2023-09-08T05:41:15;96574.56;;;14.02;100.00
50384;BME280;36301;48.310;12.786;2023-09-08T05:43:41;96573.88;;;14.13;100.00
50384;BME280;36301;48.310;12.786;2023-09-08T05:46:08;96570.47;;;14.16;100.00
50384;BME280;36301;48.310;12.786;2023-09-08T05:48:34;96581.16;;;14.23;100.00
50384;BME280;36301;48.310;12.786;2023-09-08T05:51:01;96579.28;;;14.34;100.00
50384;BME280;36301;48.310;12.786;2023-09-08T05:53:28;96581.59;;;14.43;100.00
50384;BME280;36301;48.310;12.786;2023-09-08T05:55:56;96584.72;;;14.52;100.00
50384;BME280;36301;48.310;12.786;2023-09-08T05:58:22;96589.69;;;14.57;100.00
50384;BME280;36301;48.310;12.786;2023-09-08T06:00:51;96591.25;;;14.72;100.00
50384;BME280;36301;48.310;12.786;2023-09-08T06:03:17;96582.16;;;14.81;100.00
50384;BME280;36301;48.310;12.786;2023-09-08T06:05:44;96595.50;;;15.09;100.00
50384;BME280;36301;48.310;12.786;2023-09-08T06:08:10;96592.44;;;16.14;97.45
50384;BME280;36301;48.310;12.786;2023-09-08T06:10:38;96591.75;;;17.46;89.29
50384;BME280;36301;48.310;12.786;2023-09-08T06:13:05;96588.63;;;18.68;80.22
50384;BME280;36301;48.310;12.786;2023-09-08T06:15:34;96585.97;;;19.73;72.89
50384;BME280;36301;48.310;12.786;2023-09-08T06:18:00;96593.47;;;20.64;67.65
50384;BME280;36301;48.310;12.786;2023-09-08T06:20:27;96598.25;;;21.62;61.04
50384;BME280;36301;48.310;12.786;2023-09-08T06:22:54;96595.03;;;21.67;60.19
50384;BME280;36301;48.310;12.786;2023-09-08T06:25:20;96605.09;;;22.12;57.06
50384;BME280;36301;48.310;12.786;2023-09-08T06:27:47;96601.22;;;22.54;55.02
50384;BME280;36301;48.310;12.786;2023-09-08T06:30:13;96599.00;;;22.78;54.46
50384;BME280;36301;48.310;12.786;2023-09-08T06:32:42;96607.22;;;22.88;54.04
50384;BME280;36301;48.310;12.786;2023-09-08T06:35:09;96601.19;;;23.35;52.93
50384;BME280;36301;48.310;12.786;2023-09-08T06:37:37;96600.75;;;23.49;52.02
50384;BME280;36301;48.310;12.786;2023-09-08T06:40:05;96600.81;;;24.18;50.87
50384;BME280;36301;48.310;12.786;2023-09-08T06:42:32;96604.13;;;24.66;49.15
50384;BME280;36301;48.310;12.786;2023-09-08T06:44:59;96594.03;;;25.20;47.46
50384;BME280;36301;48.310;12.786;2023-09-08T06:47:26;96606.28;;;25.43;46.35
50384;BME280;36301;48.310;12.786;2023-09-08T06:49:52;96602.19;;;24.67;47.89
50384;BME280;36301;48.310;12.786;2023-09-08T06:52:19;96609.34;;;24.82;47.24
50384;BME280;36301;48.310;12.786;2023-09-08T06:54:46;96614.22;;;24.97;47.52
50384;BME280;36301;48.310;12.786;2023-09-08T06:57:13;96610.25;;;25.60;46.04
50384;BME280;36301;48.310;12.786;2023-09-08T06:59:40;96615.09;;;24.94;47.14
50384;BME280;36301;48.310;12.786;2023-09-08T07:02:07;96611.69;;;26.01;46.28
50384;BME280;36301;48.310;12.786;2023-09-08T07:04:34;96609.31;;;25.45;45.62
50384;BME280;36301;48.310;12.786;2023-09-08T07:07:00;96618.38;;;25.60;46.32
50384;BME280;36301;48.310;12.786;2023-09-08T07:09:37;96622.31;;;25.68;46.49
50384;BME280;36301;48.310;12.786;2023-09-08T07:12:04;96609.69;;;25.83;46.55
50384;BME280;36301;48.310;12.786;2023-09-08T07:14:31;96611.97;;;25.76;44.97
50384;BME280;36301;48.310;12.786;2023-09-08T07:16:58;96613.47;;;25.95;45.02
50384;BME280;36301;48.310;12.786;2023-09-08T07:19:26;96617.09;;;25.83;45.49
50384;BME280;36301;48.310;12.786;2023-09-08T07:21:53;96615.16;;;26.11;44.37
50384;BME280;36301;48.310;12.786;2023-09-08T07:24:19;96609.56;;;26.05;44.78
50384;BME280;36301;48.310;12.786;2023-09-08T07:26:46;96612.41;;;26.20;44.97
50384;BME280;36301;48.310;12.786;2023-09-08T07:29:12;96614.84;;;25.91;44.22
50384;BME280;36301;48.310;12.786;2023-09-08T07:31:39;96619.97;;;26.25;43.12
50384;BME280;36301;48.310;12.786;2023-09-08T07:34:06;96611.06;;;25.88;43.34
50384;BME280;36301;48.310;12.786;2023-09-08T07:36:32;96614.97;;;26.05;43.14
50384;BME280;36301;48.310;12.786;2023-09-08T07:38:59;96600.81;;;26.20;43.43
50384;BME280;36301;48.310;12.786;2023-09-08T07:41:25;96612.97;;;26.79;42.02
50384;BME280;36301;48.310;12.786;2023-09-08T07:43:52;96607.38;;;27.25;42.26
50384;BME280;36301;48.310;12.786;2023-09-08T07:46:18;96622.25;;;27.06;42.34
50384;BME280;36301;48.310;12.786;2023-09-08T07:48:45;96613.81;;;26.43;42.77
50384;BME280;36301;48.310;12.786;2023-09-08T07:51:12;96623.19;;;26.94;43.05
50384;BME280;36301;48.310;12.786;2023-09-08T07:53:38;96620.88;;;27.77;41.84
50384;BME280;36301;48.310;12.786;2023-09-08T07:56:05;96621.44;;;27.24;42.23
50384;BME280;36301;48.310;12.786;2023-09-08T07:58:32;96617.22;;;28.42;42.12
50384;BME280;36301;48.310;12.786;2023-09-08T08:00:59;96622.38;;;28.02;41.36
50384;BME280;36301;48.310;12.786;2023-09-08T08:03:26;96630.56;;;27.45;41.26
50384;BME280;36301;48.310;12.786;2023-09-08T08:05:52;96634.75;;;26.24;42.47
50384;BME280;36301;48.310;12.786;2023-09-08T08:08:19;96622.19;;;26.73;42.08
50384;BME280;36301;48.310;12.786;2023-09-08T08:10:45;96631.72;;;26.40;43.46
50384;BME280;36301;48.310;12.786;2023-09-08T08:13:12;96627.50;;;26.67;43.32
50384;BME280;36301;48.310;12.786;2023-09-08T08:15:40;96622.66;;;26.25;42.25
50384;BME280;36301;48.310;12.786;2023-09-08T08:18:08;96623.28;;;26.57;42.34
50384;BME280;36301;48.310;12.786;2023-09-08T08:20:38;96622.94;;;26.82;42.50
50384;BME280;36301;48.310;12.786;2023-09-08T08:23:05;96615.09;;;26.75;42.08
50384;BME280;36301;48.310;12.786;2023-09-08T08:25:33;96616.53;;;27.04;43.61
50384;BME280;36301;48.310;12.786;2023-09-08T08:28:00;96619.97;;;26.53;42.46
50384;BME280;36301;48.310;12.786;2023-09-08T08:30:27;96620.13;;;27.01;42.93
50384;BME280;36301;48.310;12.786;2023-09-08T08:32:54;96617.72;;;26.51;42.62
50384;BME280;36301;48.310;12.786;2023-09-08T08:35:21;96617.06;;;26.75;43.24
50384;BME280;36301;48.310;12.786;2023-09-08T08:37:48;96610.00;;;26.59;42.94
50384;BME280;36301;48.310;12.786;2023-09-08T08:40:14;96601.09;;;27.19;42.07
50384;BME280;36301;48.310;12.786;2023-09-08T08:42:41;96603.31;;;26.78;42.11
50384;BME280;36301;48.310;12.786;2023-09-08T08:45:08;96609.59;;;27.03;42.59
50384;BME280;36301;48.310;12.786;2023-09-08T08:47:35;96597.41;;;26.89;41.28
50384;BME280;36301;48.310;12.786;2023-09-08T08:50:02;96602.84;;;26.89;43.75
50384;BME280;36301;48.310;12.786;2023-09-08T08:52:30;96601.56;;;27.41;42.68
50384;BME280;36301;48.310;12.786;2023-09-08T08:54:57;96598.13;;;27.08;41.89
50384;BME280;36301;48.310;12.786;2023-09-08T08:57:24;96607.28;;;26.50;41.99
50384;BME280;36301;48.310;12.786;2023-09-08T08:59:54;96600.16;;;27.22;45.33
50384;BME280;36301;48.310;12.786;2023-09-08T09:02:21;96602.53;;;26.87;41.49
50384;BME280;36301;48.310;12.786;2023-09-08T09:04:49;96599.13;;;26.59;42.71
50384;BME280;36301;48.310;12.786;2023-09-08T09:07:18;96596.16;;;26.99;42.67
50384;BME280;36301;48.310;12.786;2023-09-08T09:09:45;96598.09;;;26.56;43.45
50384;BME280;36301;48.310;12.786;2023-09-08T09:12:12;96592.50;;;27.45;42.79
50384;BME280;36301;48.310;12.786;2023-09-08T09:14:44;96601.88;;;27.10;40.96
50384;BME280;36301;48.310;12.786;2023-09-08T09:17:13;96594.09;;;27.27;41.32
50384;BME280;36301;48.310;12.786;2023-09-08T09:19:40;96598.47;;;27.58;40.38
50384;BME280;36301;48.310;12.786;2023-09-08T09:22:07;96604.75;;;27.73;41.18
50384;BME280;36301;48.310;12.786;2023-09-08T09:24:39;96600.66;;;27.68;39.62
50384;BME280;36301;48.310;12.786;2023-09-08T09:27:12;96603.34;;;27.21;41.96
50384;BME280;36301;48.310;12.786;2023-09-08T09:29:49;96604.44;;;27.05;40.89
50384;BME280;36301;48.310;12.786;2023-09-08T09:32:16;96604.78;;;26.98;41.41
50384;BME280;36301;48.310;12.786;2023-09-08T09:34:50;96608.69;;;26.97;41.69
50384;BME280;36301;48.310;12.786;2023-09-08T09:37:20;96610.66;;;27.62;41.78
50384;BME280;36301;48.310;12.786;2023-09-08T09:39:51;96588.56;;;27.93;43.21
50384;BME280;36301;48.310;12.786;2023-09-08T09:42:18;96600.88;;;27.56;41.52
50384;BME280;36301;48.310;12.786;2023-09-08T09:44:47;96600.59;;;27.54;41.24
50384;BME280;36301;48.310;12.786;2023-09-08T09:47:15;96597.22;;;27.35;41.51
50384;BME280;36301;48.310;12.786;2023-09-08T09:49:43;96587.59;;;27.25;43.46
50384;BME280;36301;48.310;12.786;2023-09-08T09:52:19;96587.91;;;26.75;42.63
50384;BME280;36301;48.310;12.786;2023-09-08T09:54:47;96592.91;;;26.77;42.74
50384;BME280;36301;48.310;12.786;2023-09-08T09:57:14;96589.94;;;27.17;43.02
50384;BME280;36301;48.310;12.786;2023-09-08T09:59:41;96591.38;;;26.85;42.87
50384;BME280;36301;48.310;12.786;2023-09-08T10:02:12;96588.78;;;26.90;42.13
50384;BME280;36301;48.310;12.786;2023-09-08T10:04:40;96588.81;;;26.81;43.25
50384;BME280;36301;48.310;12.786;2023-09-08T10:07:07;96569.75;;;27.57;42.73
50384;BME280;36301;48.310;12.786;2023-09-08T10:09:36;96579.56;;;26.97;42.99
50384;BME280;36301;48.310;12.786;2023-09-08T10:12:06;96578.28;;;26.65;43.56
50384;BME280;36301;48.310;12.786;2023-09-08T10:14:40;96578.47;;;27.13;43.08
50384;BME280;36301;48.310;12.786;2023-09-08T10:17:12;96576.38;;;27.08;42.23
50384;BME280;36301;48.310;12.786;2023-09-08T10:19:44;96572.09;;;26.74;43.19
50384;BME280;36301;48.310;12.786;2023-09-08T10:22:20;96573.97;;;25.85;44.19
50384;BME280;36301;48.310;12.786;2023-09-08T10:24:49;96573.06;;;25.79;43.66
50384;BME280;36301;48.310;12.786;2023-09-08T10:27:17;96578.34;;;26.28;43.17
50384;BME280;36301;48.310;12.786;2023-09-08T10:29:47;96581.06;;;26.47;42.48
50384;BME280;36301;48.310;12.786;2023-09-08T10:32:15;96566.44;;;26.44;42.83
50384;BME280;36301;48.310;12.786;2023-09-08T10:34:42;96572.75;;;26.41;43.35
50384;BME280;36301;48.310;12.786;2023-09-08T10:37:25;96574.22;;;25.59;44.41
50384;BME280;36301;48.310;12.786;2023-09-08T10:39:56;96562.97;;;25.70;45.63
50384;BME280;36301;48.310;12.786;2023-09-08T10:42:24;96574.06;;;25.35;46.72
50384;BME280;36301;48.310;12.786;2023-09-08T10:44:57;96576.53;;;25.70;47.81
50384;BME280;36301;48.310;12.786;2023-09-08T10:47:24;96582.44;;;25.28;46.08
50384;BME280;36301;48.310;12.786;2023-09-08T10:49:52;96570.09;;;24.87;45.30
50384;BME280;36301;48.310;12.786;2023-09-08T10:52:26;96561.84;;;24.91;46.38
50384;BME280;36301;48.310;12.786;2023-09-08T10:54:54;96576.25;;;24.56;47.18
50384;BME280;36301;48.310;12.786;2023-09-08T10:57:23;96574.47;;;24.84;48.24
50384;BME280;36301;48.310;12.786;2023-09-08T10:59:54;96568.75;;;24.92;48.57
50384;BME280;36301;48.310;12.786;2023-09-08T11:02:41;96568.47;;;24.99;48.16
50384;BME280;36301;48.310;12.786;2023-09-08T11:05:10;96566.84;;;25.01;47.86
50384;BME280;36301;48.310;12.786;2023-09-08T11:07:38;96568.47;;;24.90;46.97
50384;BME280;36301;48.310;12.786;2023-09-08T11:10:06;96559.13;;;24.91;48.00
50384;BME280;36301;48.310;12.786;2023-09-08T11:12:33;96555.75;;;25.08;49.44
50384;BME280;36301;48.310;12.786;2023-09-08T11:15:02;96558.56;;;25.45;48.95
50384;BME280;36301;48.310;12.786;2023-09-08T11:17:38;96570.16;;;25.46;47.75
50384;BME280;36301;48.310;12.786;2023-09-08T11:20:09;96561.66;;;25.16;47.97
50384;BME280;36301;48.310;12.786;2023-09-08T11:22:38;96566.84;;;25.51;48.67
50384;BME280;36301;48.310;12.786;2023-09-08T11:25:07;96559.88;;;25.31;48.40
50384;BME280;36301;48.310;12.786;2023-09-08T11:27:34;96549.91;;;25.19;49.74
50384;BME280;36301;48.310;12.786;2023-09-08T11:30:01;96550.59;;;25.51;52.02
50384;BME280;36301;48.310;12.786;2023-09-08T11:32:35;96546.78;;;25.30;48.96
50384;BME280;36301;48.310;12.786;2023-09-08T11:35:06;96539.91;;;25.56;48.90
50384;BME280;36301;48.310;12.786;2023-09-08T11:37:40;96553.59;;;25.62;47.85
50384;BME280;36301;48.310;12.786;2023-09-08T11:40:09;96547.25;;;25.47;48.40
50384;BME280;36301;48.310;12.786;2023-09-08T11:42:42;96543.66;;;25.50;49.33
50384;BME280;36301;48.310;12.786;2023-09-08T11:45:14;96543.66;;;25.59;48.76
50384;BME280;36301;48.310;12.786;2023-09-08T11:47:44;96548.13;;;25.25;49.23
50384;BME280;36301;48.310;12.786;2023-09-08T11:50:11;96540.34;;;25.46;49.19
50384;BME280;36301;48.310;12.786;2023-09-08T11:52:46;96550.91;;;25.71;49.21
50384;BME280;36301;48.310;12.786;2023-09-08T11:55:13;96531.28;;;25.49;47.94
50384;BME280;36301;48.310;12.786;2023-09-08T11:57:40;96548.47;;;25.64;49.92
50384;BME280;36301;48.310;12.786;2023-09-08T12:00:08;96539.44;;;25.67;49.87
50384;BME280;36301;48.310;12.786;2023-09-08T12:02:37;96543.41;;;25.75;49.53
50384;BME280;36301;48.310;12.786;2023-09-08T12:05:04;96536.94;;;25.91;49.41
50384;BME280;36301;48.310;12.786;2023-09-08T12:07:31;96547.78;;;25.91;50.48
50384;BME280;36301;48.310;12.786;2023-09-08T12:09:58;96549.56;;;25.94;48.49
50384;BME280;36301;48.310;12.786;2023-09-08T12:12:25;96542.75;;;25.62;50.95
50384;BME280;36301;48.310;12.786;2023-09-08T12:14:53;96544.88;;;25.67;50.83
50384;BME280;36301;48.310;12.786;2023-09-08T12:17:20;96529.50;;;25.55;49.67
50384;BME280;36301;48.310;12.786;2023-09-08T12:19:51;96540.66;;;25.57;51.29
50384;BME280;36301;48.310;12.786;2023-09-08T12:22:18;96530.69;;;25.45;50.74
50384;BME280;36301;48.310;12.786;2023-09-08T12:27:23;96531.13;;;25.43;50.78
50384;BME280;36301;48.310;12.786;2023-09-08T12:29:53;96532.22;;;25.46;51.77
50384;BME280;36301;48.310;12.786;2023-09-08T12:32:21;96530.84;;;25.50;51.78
50384;BME280;36301;48.310;12.786;2023-09-08T12:34:48;96531.47;;;25.73;52.50
50384;BME280;36301;48.310;12.786;2023-09-08T12:37:14;96530.72;;;26.00;51.19
50384;BME280;36301;48.310;12.786;2023-09-08T12:39:41;96526.34;;;25.66;50.82
50384;BME280;36301;48.310;12.786;2023-09-08T12:42:08;96522.41;;;25.48;51.62
50384;BME280;36301;48.310;12.786;2023-09-08T12:44:34;96519.25;;;25.68;52.56
50384;BME280;36301;48.310;12.786;2023-09-08T12:47:01;96523.66;;;25.75;50.27
50384;BME280;36301;48.310;12.786;2023-09-08T12:49:28;96523.31;;;25.54;50.42
50384;BME280;36301;48.310;12.786;2023-09-08T12:51:55;96516.84;;;25.52;50.81
50384;BME280;36301;48.310;12.786;2023-09-08T12:54:22;96515.63;;;25.44;52.07